Time;durP1;ratioP1;P1;durP2;ratioP2;P2;SDS_P1;SDS_P2;PMS_P1;PMS_P2;Temp;Humidity;BMP_temperature;BMP_pressure;BME280_temperature;BME280_humidity;BME280_pressure;Samples;Min_cycle;Max_cycle;Signal;HPM_P1;HPM_P2
2023/09/28 00:02:43;;;;;;;6.60;4.25;;;15.80;99.90;;;;;;5040459;28;20032;-70
2023/09/28 00:05:10;;;;;;;6.88;3.78;;;15.70;99.90;;;;;;5040205;28;20021;-70
2023/09/28 00:07:36;;;;;;;7.55;4.00;;;15.70;99.90;;;;;;5040014;28;20025;-70
2023/09/28 00:10:03;;;;;;;5.10;3.80;;;15.50;99.90;;;;;;5039141;28;20071;-70
2023/09/28 00:12:29;;;;;;;6.90;4.05;;;15.50;99.90;;;;;;5039184;28;20154;-70
2023/09/28 00:14:54;;;;;;;7.22;4.13;;;15.60;99.90;;;;;;5038992;28;20088;-70
2023/09/28 00:17:20;;;;;;;8.77;4.30;;;15.60;99.90;;;;;;5039539;28;20037;-70
2023/09/28 00:19:45;;;;;;;6.80;3.95;;;15.70;99.90;;;;;;5039759;28;20039;-70
2023/09/28 00:22:11;;;;;;;4.50;3.53;;;15.70;99.90;;;;;;5039487;28;20030;-71
2023/09/28 00:24:36;;;;;;;6.88;3.40;;;15.60;99.90;;;;;;5039184;28;20018;-71
2023/09/28 00:27:02;;;;;;;5.05;3.38;;;15.60;99.90;;;;;;5038716;28;20025;-71
2023/09/28 00:29:27;;;;;;;4.88;3.45;;;15.50;99.90;;;;;;5038862;28;20033;-71
2023/09/28 00:31:54;;;;;;;4.93;3.25;;;15.50;99.90;;;;;;5038554;28;20152;-71
2023/09/28 00:34:19;;;;;;;5.78;3.65;;;15.50;99.90;;;;;;5039634;28;20032;-70
2023/09/28 00:36:45;;;;;;;8.70;3.97;;;15.70;99.90;;;;;;5038860;28;20120;-71
2023/09/28 00:39:11;;;;;;;13.23;4.50;;;15.90;99.90;;;;;;5038728;28;20104;-70
2023/09/28 00:41:37;;;;;;;7.38;4.30;;;15.90;99.90;;;;;;5039413;28;20022;-70
2023/09/28 00:44:04;;;;;;;9.98;4.78;;;15.90;99.90;;;;;;5038685;28;20100;-70
2023/09/28 00:46:33;;;;;;;6.03;3.65;;;15.90;99.90;;;;;;5038597;28;20022;-70
2023/09/28 00:49:03;;;;;;;7.05;4.00;;;15.60;99.90;;;;;;5039178;28;20017;-70
2023/09/28 00:51:31;;;;;;;5.55;3.58;;;15.30;99.90;;;;;;5039308;28;20049;-70
2023/09/28 00:54:00;;;;;;;7.63;3.55;;;15.10;99.90;;;;;;5039233;28;20022;-70
2023/09/28 00:56:26;;;;;;;11.18;4.25;;;15.00;99.90;;;;;;5039651;28;20033;-70
2023/09/28 00:58:56;;;;;;;6.78;4.20;;;15.00;99.90;;;;;;5038986;28;20045;-71
2023/09/28 01:01:27;;;;;;;7.57;3.90;;;15.10;99.90;;;;;;5038620;28;20037;-70
2023/09/28 01:03:55;;;;;;;10.80;3.80;;;15.30;99.90;;;;;;5039033;28;20033;-70
2023/09/28 01:06:21;;;;;;;7.13;4.15;;;15.40;99.90;;;;;;5038682;28;20026;-70
2023/09/28 01:08:47;;;;;;;6.63;4.13;;;15.50;99.90;;;;;;5038256;28;20113;-70
2023/09/28 01:11:12;;;;;;;5.07;4.00;;;15.60;99.90;;;;;;5039235;28;20128;-71
2023/09/28 01:13:39;;;;;;;8.40;4.50;;;15.60;99.90;;;;;;5038215;28;20033;-70
2023/09/28 01:16:04;;;;;;;7.60;4.80;;;15.70;99.90;;;;;;5039025;28;20022;-70
2023/09/28 01:18:30;;;;;;;6.68;4.43;;;15.80;99.90;;;;;;5038554;28;20124;-70
2023/09/28 01:20:57;;;;;;;5.85;3.75;;;15.70;99.90;;;;;;5038716;28;20037;-70
2023/09/28 01:23:23;;;;;;;10.48;3.60;;;15.70;99.90;;;;;;5037745;28;20021;-70
2023/09/28 01:25:49;;;;;;;6.55;4.60;;;15.80;99.90;;;;;;5038464;28;20028;-70
2023/09/28 01:28:18;;;;;;;8.48;4.25;;;15.80;99.90;;;;;;5038721;28;20029;-70
2023/09/28 01:30:44;;;;;;;9.55;5.28;;;15.60;99.90;;;;;;5038390;28;20037;-71
2023/09/28 01:33:09;;;;;;;6.43;4.90;;;15.50;99.90;;;;;;5038269;28;20040;-70
2023/09/28 01:35:35;;;;;;;5.97;4.38;;;15.50;99.90;;;;;;5038965;28;20022;-70
2023/09/28 01:38:10;;;;;;;5.95;4.07;;;15.50;99.90;;;;;;5037419;28;20029;-71
2023/09/28 01:40:36;;;;;;;8.68;4.45;;;15.40;99.90;;;;;;5038125;28;20061;-70
2023/09/28 01:43:01;;;;;;;7.25;4.20;;;15.30;99.90;;;;;;5037350;28;20021;-70
2023/09/28 01:45:28;;;;;;;5.57;4.20;;;15.20;99.90;;;;;;5037233;28;20018;-70
2023/09/28 01:47:54;;;;;;;8.13;4.45;;;15.30;99.90;;;;;;5038302;28;20032;-70
2023/09/28 01:50:19;;;;;;;6.20;3.50;;;15.30;99.90;;;;;;5038293;28;20025;-70
2023/09/28 01:52:45;;;;;;;8.63;4.38;;;15.30;99.90;;;;;;5037721;28;20029;-70
2023/09/28 01:55:10;;;;;;;13.35;4.78;;;15.30;99.90;;;;;;5037946;28;20109;-70
2023/09/28 01:57:36;;;;;;;7.63;4.47;;;15.30;99.90;;;;;;5036987;28;20021;-71
2023/09/28 02:00:08;;;;;;;8.15;4.53;;;15.20;99.90;;;;;;5037883;28;20051;-70
2023/09/28 02:02:36;;;;;;;6.45;3.50;;;15.20;99.90;;;;;;5037906;28;20024;-70
2023/09/28 02:05:03;;;;;;;7.25;4.88;;;15.10;99.90;;;;;;5037987;28;20014;-70
2023/09/28 02:07:28;;;;;;;6.55;4.25;;;15.10;99.90;;;;;;5036731;28;20109;-70
2023/09/28 02:09:54;;;;;;;8.90;4.85;;;15.10;99.90;;;;;;5036952;28;20049;-70
2023/09/28 02:12:19;;;;;;;6.70;4.55;;;15.10;99.90;;;;;;5036311;28;20093;-70
2023/09/28 02:14:45;;;;;;;8.43;4.90;;;15.10;99.90;;;;;;5037644;28;20040;-70
2023/09/28 02:17:10;;;;;;;8.32;4.43;;;15.10;99.90;;;;;;5036828;28;20033;-70
2023/09/28 02:19:38;;;;;;;7.53;5.10;;;15.00;99.90;;;;;;5036871;28;20033;-71
2023/09/28 02:22:05;;;;;;;7.30;5.15;;;15.00;99.90;;;;;;5037424;28;20017;-71
2023/09/28 02:24:31;;;;;;;6.90;4.53;;;15.00;99.90;;;;;;5037508;28;20014;-70
2023/09/28 02:26:56;;;;;;;8.52;4.75;;;14.90;99.90;;;;;;5037328;28;20024;-70
2023/09/28 02:29:22;;;;;;;8.45;4.47;;;15.00;99.90;;;;;;5036642;28;20033;-70
2023/09/28 02:31:48;;;;;;;6.70;4.43;;;15.10;99.90;;;;;;5037593;28;20021;-71
2023/09/28 02:34:13;;;;;;;8.95;4.60;;;15.20;99.90;;;;;;5036792;28;20060;-70
2023/09/28 02:36:39;;;;;;;8.52;5.15;;;15.20;99.90;;;;;;5036525;28;20022;-71
2023/09/28 02:39:07;;;;;;;9.18;4.78;;;15.20;99.90;;;;;;5036468;28;20048;-70
2023/09/28 02:41:33;;;;;;;7.32;4.57;;;15.20;99.90;;;;;;5037150;28;20031;-70
2023/09/28 02:43:59;;;;;;;6.68;4.63;;;15.10;99.90;;;;;;5037439;28;20041;-70
2023/09/28 02:46:26;;;;;;;6.75;4.70;;;15.10;99.90;;;;;;5036225;28;20053;-70
2023/09/28 02:48:51;;;;;;;6.03;4.30;;;15.10;99.90;;;;;;5036653;28;20022;-70
2023/09/28 02:51:17;;;;;;;6.25;4.20;;;15.10;99.90;;;;;;5036969;28;20033;-70
2023/09/28 02:53:43;;;;;;;7.95;4.65;;;15.20;99.90;;;;;;5036221;28;20041;-70
2023/09/28 02:56:08;;;;;;;8.13;4.85;;;15.20;99.90;;;;;;5036099;28;20029;-70
2023/09/28 02:58:34;;;;;;;10.98;5.00;;;15.20;99.90;;;;;;5037374;28;20056;-70
2023/09/28 03:01:00;;;;;;;6.68;4.22;;;15.20;99.90;;;;;;5037171;28;20028;-70
2023/09/28 03:03:26;;;;;;;9.73;4.35;;;15.30;99.90;;;;;;5036982;28;20045;-70
2023/09/28 03:05:55;;;;;;;10.35;5.53;;;15.40;99.90;;;;;;5036169;28;20028;-70
2023/09/28 03:08:21;;;;;;;9.45;6.13;;;15.30;99.90;;;;;;5037423;28;20029;-70
2023/09/28 03:10:47;;;;;;;7.68;5.03;;;15.40;99.90;;;;;;5036953;28;20030;-70
2023/09/28 03:13:13;;;;;;;7.60;4.38;;;15.30;99.90;;;;;;5036197;28;20060;-70
2023/09/28 03:15:41;;;;;;;5.57;4.45;;;15.30;99.90;;;;;;5035849;28;20032;-71
2023/09/28 03:18:06;;;;;;;9.18;4.63;;;15.20;99.90;;;;;;5036042;28;20048;-70
2023/09/28 03:20:32;;;;;;;10.80;4.90;;;15.10;99.90;;;;;;5035872;28;20026;-70
2023/09/28 03:22:58;;;;;;;7.70;4.63;;;15.10;99.90;;;;;;5038213;28;20067;-70
2023/09/28 03:25:24;;;;;;;9.30;5.38;;;15.20;99.90;;;;;;5040054;28;20018;-70
2023/09/28 03:27:53;;;;;;;8.77;4.85;;;15.10;99.90;;;;;;5040177;28;20022;-70
2023/09/28 03:30:21;;;;;;;5.93;4.38;;;15.00;99.90;;;;;;5039751;28;20079;-70
2023/09/28 03:32:47;;;;;;;7.15;4.72;;;14.90;99.90;;;;;;5040169;28;20029;-70
2023/09/28 03:35:13;;;;;;;7.32;4.20;;;14.90;99.90;;;;;;5039798;28;20039;-70
2023/09/28 03:37:42;;;;;;;8.88;5.07;;;15.10;99.90;;;;;;5040833;28;20022;-70
2023/09/28 03:40:10;;;;;;;6.05;4.35;;;15.30;99.90;;;;;;5040402;28;20151;-70
2023/09/28 03:42:48;;;;;;;5.93;4.47;;;15.50;99.90;;;;;;5040693;28;20017;-70
2023/09/28 03:45:15;;;;;;;6.45;4.47;;;15.60;99.90;;;;;;5040796;28;20018;-71
2023/09/28 03:47:43;;;;;;;9.38;5.10;;;15.60;99.90;;;;;;5040687;28;20013;-70
2023/09/28 03:50:12;;;;;;;8.80;5.30;;;15.50;99.90;;;;;;5039815;28;20030;-70
2023/09/28 03:52:39;;;;;;;8.10;5.03;;;15.50;99.90;;;;;;5039612;28;20026;-70
2023/09/28 03:55:09;;;;;;;10.18;5.15;;;15.40;99.90;;;;;;5040570;28;20080;-70
2023/09/28 03:57:35;;;;;;;12.95;5.30;;;15.40;99.90;;;;;;5040232;28;20104;-70
2023/09/28 04:00:02;;;;;;;8.18;4.82;;;15.40;99.90;;;;;;5040166;28;20097;-70
2023/09/28 04:02:28;;;;;;;7.35;4.85;;;15.30;99.90;;;;;;5039234;28;20117;-70
2023/09/28 04:04:54;;;;;;;14.88;5.60;;;15.10;99.90;;;;;;5039913;28;20021;-70
2023/09/28 04:07:19;;;;;;;7.38;4.68;;;14.90;99.90;;;;;;5039141;28;20029;-70
2023/09/28 04:09:45;;;;;;;10.57;4.60;;;14.90;99.90;;;;;;5039454;28;20028;-70
2023/09/28 04:12:12;;;;;;;5.97;4.30;;;15.00;99.90;;;;;;5038995;28;20053;-70
2023/09/28 04:14:38;;;;;;;11.40;5.28;;;15.00;99.90;;;;;;5038988;28;20025;-70
2023/09/28 04:17:03;;;;;;;8.88;4.65;;;15.10;99.90;;;;;;5039826;28;20032;-70
2023/09/28 04:19:30;;;;;;;9.15;4.65;;;15.10;99.90;;;;;;5038771;28;20065;-70
2023/09/28 04:21:55;;;;;;;8.15;4.53;;;15.00;99.90;;;;;;5038769;28;20024;-70
2023/09/28 04:24:21;;;;;;;8.30;5.28;;;14.90;99.90;;;;;;5038944;28;20021;-70
2023/09/28 04:26:47;;;;;;;8.65;4.38;;;14.80;99.90;;;;;;5038844;28;20021;-70
2023/09/28 04:29:13;;;;;;;6.95;4.38;;;14.80;99.90;;;;;;5039912;28;20094;-70
2023/09/28 04:31:40;;;;;;;10.40;4.70;;;14.80;99.90;;;;;;5039656;28;20055;-70
2023/09/28 04:34:07;;;;;;;7.15;4.45;;;14.80;99.90;;;;;;5037933;28;20037;-70
2023/09/28 04:36:33;;;;;;;6.45;3.92;;;14.90;99.90;;;;;;5038739;28;20029;-70
2023/09/28 04:38:59;;;;;;;17.20;5.38;;;15.00;99.90;;;;;;5038523;28;20052;-70
2023/09/28 04:41:24;;;;;;;8.57;4.50;;;15.00;99.90;;;;;;5038355;28;20095;-70
2023/09/28 04:43:50;;;;;;;16.10;5.05;;;14.90;99.90;;;;;;5039401;28;20017;-70
2023/09/28 04:46:15;;;;;;;6.20;4.70;;;14.90;99.90;;;;;;5038752;28;20112;-70
2023/09/28 04:48:41;;;;;;;8.35;4.53;;;14.90;99.90;;;;;;5039363;28;20025;-70
2023/09/28 04:51:06;;;;;;;6.38;3.92;;;14.90;99.90;;;;;;5039095;28;20075;-70
2023/09/28 04:53:32;;;;;;;9.93;4.60;;;14.90;99.90;;;;;;5038194;28;20029;-70
2023/09/28 04:55:58;;;;;;;8.18;4.90;;;14.90;99.90;;;;;;5038198;28;20021;-70
2023/09/28 04:58:23;;;;;;;7.43;4.25;;;14.90;99.90;;;;;;5038263;28;20030;-70
2023/09/28 05:00:49;;;;;;;12.65;5.20;;;14.80;99.90;;;;;;5038104;28;20129;-70
2023/09/28 05:03:14;;;;;;;19.50;5.82;;;14.80;99.90;;;;;;5038929;28;20037;-70
2023/09/28 05:05:40;;;;;;;15.20;5.25;;;14.70;99.90;;;;;;5039466;28;20053;-70
2023/09/28 05:08:05;;;;;;;7.38;4.45;;;14.60;99.90;;;;;;5038137;28;20025;-70
2023/09/28 05:10:31;;;;;;;12.27;5.00;;;14.60;99.90;;;;;;5038788;28;20037;-70
2023/09/28 05:12:58;;;;;;;7.05;4.32;;;14.60;99.90;;;;;;5038887;28;20089;-70
2023/09/28 05:15:23;;;;;;;13.15;5.05;;;14.70;99.90;;;;;;5038938;28;20025;-70
2023/09/28 05:17:49;;;;;;;12.70;4.85;;;14.80;99.90;;;;;;5037841;28;20032;-70
2023/09/28 05:20:15;;;;;;;9.00;4.72;;;14.80;99.90;;;;;;5038094;28;20021;-70
2023/09/28 05:22:40;;;;;;;8.32;4.95;;;14.80;99.90;;;;;;5039090;28;20073;-70
2023/09/28 05:25:06;;;;;;;9.77;4.60;;;14.90;99.90;;;;;;5039085;28;20021;-70
2023/09/28 05:27:33;;;;;;;11.90;5.95;;;14.90;99.90;;;;;;5037635;28;20017;-70
2023/09/28 05:29:58;;;;;;;6.80;4.78;;;15.00;99.90;;;;;;5038592;28;20029;-70
2023/09/28 05:32:24;;;;;;;10.23;6.07;;;15.20;99.90;;;;;;5037476;28;20028;-70
2023/09/28 05:34:49;;;;;;;11.88;6.45;;;15.20;99.90;;;;;;5038749;28;20063;-70
2023/09/28 05:37:15;;;;;;;10.82;5.75;;;15.30;99.90;;;;;;5038983;28;20100;-70
2023/09/28 05:39:41;;;;;;;10.02;5.65;;;15.30;99.90;;;;;;5039091;28;20049;-70
2023/09/28 05:42:07;;;;;;;9.73;5.60;;;15.30;99.90;;;;;;5038341;28;20022;-70
2023/09/28 05:44:33;;;;;;;17.75;5.65;;;15.30;99.90;;;;;;5038370;28;20021;-70
2023/09/28 05:46:59;;;;;;;10.23;5.60;;;15.10;99.90;;;;;;5036336;28;20021;-70
2023/09/28 05:49:25;;;;;;;10.63;5.15;;;14.90;99.90;;;;;;5037226;28;20025;-70
2023/09/28 05:51:52;;;;;;;9.07;4.93;;;14.90;99.90;;;;;;5038484;28;20018;-70
2023/09/28 05:54:17;;;;;;;8.30;5.05;;;15.10;99.90;;;;;;5038211;28;20028;-70
2023/09/28 05:56:44;;;;;;;10.75;5.75;;;15.10;99.90;;;;;;5037148;28;20022;-70
2023/09/28 05:59:10;;;;;;;11.90;5.55;;;15.00;99.90;;;;;;5037432;28;20112;-70
2023/09/28 06:01:36;;;;;;;10.40;5.68;;;15.10;99.90;;;;;;5036965;28;20060;-70
2023/09/28 06:04:02;;;;;;;9.82;5.38;;;15.20;99.90;;;;;;5038008;28;20110;-70
2023/09/28 06:06:28;;;;;;;14.60;6.57;;;15.30;99.90;;;;;;5037716;28;20060;-70
2023/09/28 06:08:54;;;;;;;10.85;7.30;;;15.20;99.90;;;;;;5037863;28;20078;-70
2023/09/28 06:11:19;;;;;;;18.25;7.75;;;15.30;99.90;;;;;;5037553;28;20021;-70
2023/09/28 06:13:45;;;;;;;15.93;7.65;;;15.40;99.90;;;;;;5037174;28;20029;-70
2023/09/28 06:16:12;;;;;;;15.05;7.68;;;15.20;99.90;;;;;;5037621;28;20021;-71
2023/09/28 06:18:39;;;;;;;15.38;7.82;;;15.30;99.90;;;;;;5037428;28;20026;-70
2023/09/28 06:21:05;;;;;;;11.75;5.65;;;15.10;99.90;;;;;;5038096;28;20025;-70
2023/09/28 06:23:31;;;;;;;18.90;8.65;;;15.20;99.90;;;;;;5037039;28;20044;-70
2023/09/28 06:25:56;;;;;;;24.60;9.70;;;15.30;99.90;;;;;;5036624;28;20080;-70
2023/09/28 06:28:24;;;;;;;23.75;9.05;;;15.30;99.90;;;;;;5037592;28;20021;-70
2023/09/28 06:30:51;;;;;;;22.80;10.40;;;15.40;99.90;;;;;;5036465;28;20108;-70
2023/09/28 06:33:17;;;;;;;35.40;13.65;;;15.50;99.90;;;;;;5036455;28;20021;-70
2023/09/28 06:35:43;;;;;;;36.65;13.73;;;15.50;99.90;;;;;;5036261;28;20036;-70
2023/09/28 06:38:08;;;;;;;41.65;15.02;;;15.50;99.90;;;;;;5036433;28;20087;-71
2023/09/28 06:40:34;;;;;;;36.42;12.63;;;15.60;99.90;;;;;;5036186;28;20025;-71
2023/09/28 06:42:59;;;;;;;29.10;11.55;;;15.50;99.90;;;;;;5036314;28;20021;-71
2023/09/28 06:45:25;;;;;;;32.03;12.18;;;15.50;99.90;;;;;;5036234;28;20018;-70
2023/09/28 06:47:53;;;;;;;30.75;11.40;;;15.60;99.90;;;;;;5036524;28;20025;-70
2023/09/28 06:50:19;;;;;;;33.63;12.80;;;15.60;99.90;;;;;;5036584;28;20029;-70
2023/09/28 06:52:45;;;;;;;43.75;13.52;;;15.50;99.90;;;;;;5037061;28;20024;-70
2023/09/28 06:55:10;;;;;;;36.67;13.32;;;15.60;99.90;;;;;;5037139;28;20030;-70
2023/09/28 06:57:36;;;;;;;33.45;12.65;;;15.70;99.90;;;;;;5035728;28;20040;-70
2023/09/28 07:00:06;;;;;;;33.92;12.43;;;15.70;99.90;;;;;;5037182;28;20112;-70
2023/09/28 07:02:31;;;;;;;29.00;11.90;;;15.70;99.90;;;;;;5036567;28;20106;-70
2023/09/28 07:04:57;;;;;;;25.02;11.32;;;15.60;99.90;;;;;;5036209;28;20064;-70
2023/09/28 07:07:24;;;;;;;29.73;12.43;;;15.70;99.90;;;;;;5037036;28;20083;-71
2023/09/28 07:09:51;;;;;;;33.85;12.52;;;15.80;99.90;;;;;;5037214;28;20048;-70
2023/09/28 07:12:16;;;;;;;26.48;13.55;;;15.90;99.90;;;;;;5036101;28;20124;-70
2023/09/28 07:14:42;;;;;;;26.95;13.40;;;16.00;99.90;;;;;;5036117;28;20070;-71
2023/09/28 07:17:07;;;;;;;31.65;14.68;;;16.00;99.90;;;;;;5035936;28;20021;-70
2023/09/28 07:19:33;;;;;;;27.08;13.45;;;16.10;99.90;;;;;;5035835;28;20026;-71
2023/09/28 07:21:58;;;;;;;30.02;13.60;;;16.20;99.90;;;;;;5036609;28;20018;-70
2023/09/28 07:24:26;;;;;;;30.13;14.15;;;16.40;99.90;;;;;;5036764;28;20022;-71
2023/09/28 07:26:51;;;;;;;30.15;14.30;;;16.60;99.90;;;;;;5036779;28;20041;-71
2023/09/28 07:29:18;;;;;;;35.55;15.70;;;16.70;99.90;;;;;;5035923;28;20053;-71
2023/09/28 07:31:43;;;;;;;33.83;15.70;;;16.80;99.90;;;;;;5035790;28;20060;-71
2023/09/28 07:34:09;;;;;;;33.17;16.35;;;16.90;99.90;;;;;;5036336;28;20052;-71
2023/09/28 07:36:34;;;;;;;28.75;15.00;;;16.90;99.90;;;;;;5035942;28;20033;-71
2023/09/28 07:39:01;;;;;;;37.42;15.70;;;17.00;99.90;;;;;;5036064;28;20037;-71
2023/09/28 07:41:26;;;;;;;33.15;14.75;;;17.00;99.90;;;;;;5036631;28;20029;-71
2023/09/28 07:43:52;;;;;;;28.55;15.85;;;17.10;99.90;;;;;;5036820;28;20025;-71
2023/09/28 07:46:18;;;;;;;35.03;16.83;;;17.30;99.90;;;;;;5036143;28;20034;-71
2023/09/28 07:48:43;;;;;;;43.38;18.25;;;17.40;99.90;;;;;;5036553;28;20025;-71
2023/09/28 07:51:09;;;;;;;39.78;18.02;;;17.20;99.90;;;;;;5035916;28;20110;-71
2023/09/28 07:53:34;;;;;;;38.88;19.17;;;17.20;99.90;;;;;;5035711;28;20028;-71
2023/09/28 07:56:00;;;;;;;43.08;17.98;;;17.00;99.90;;;;;;5036281;28;20041;-71
2023/09/28 07:58:25;;;;;;;40.60;18.42;;;17.10;99.90;;;;;;5035864;28;20026;-71
2023/09/28 08:00:51;;;;;;;32.75;17.65;;;17.00;99.90;;;;;;5035848;28;20032;-71
2023/09/28 08:03:17;;;;;;;40.05;19.27;;;17.10;99.90;;;;;;5035830;28;20025;-71
2023/09/28 08:05:42;;;;;;;36.33;17.75;;;17.30;99.90;;;;;;5035786;28;20029;-71
2023/09/28 08:08:08;;;;;;;40.83;18.52;;;17.20;99.90;;;;;;5035507;28;20021;-71
2023/09/28 08:10:33;;;;;;;41.60;19.05;;;17.40;99.90;;;;;;5037651;28;20032;-71
2023/09/28 08:13:00;;;;;;;38.95;19.15;;;17.40;99.90;;;;;;5039449;28;20037;-76
2023/09/28 08:15:25;;;;;;;37.40;17.98;;;17.50;99.90;;;;;;5040160;28;20087;-77
2023/09/28 08:17:51;;;;;;;35.92;18.17;;;17.60;99.90;;;;;;5039321;28;20021;-77
2023/09/28 08:20:17;;;;;;;32.22;17.45;;;17.70;99.90;;;;;;5040050;28;20112;-76
2023/09/28 08:22:43;;;;;;;29.15;17.17;;;17.90;99.90;;;;;;5039437;28;20029;-77
2023/09/28 08:25:09;;;;;;;33.08;18.60;;;17.80;99.90;;;;;;5038863;28;20049;-77
2023/09/28 08:27:35;;;;;;;32.33;16.75;;;17.80;99.90;;;;;;5039046;28;20160;-77
2023/09/28 08:30:02;;;;;;;29.02;16.50;;;17.90;99.90;;;;;;5039046;28;20049;-77
2023/09/28 08:32:28;;;;;;;31.17;17.65;;;18.10;99.90;;;;;;5038912;28;20025;-77
2023/09/28 08:34:53;;;;;;;30.33;16.48;;;18.20;99.90;;;;;;5038840;28;20026;-77
2023/09/28 08:37:19;;;;;;;27.63;16.65;;;18.10;99.90;;;;;;5038703;28;20037;-77
2023/09/28 08:39:45;;;;;;;26.90;16.33;;;18.10;99.90;;;;;;5038875;28;20025;-77
2023/09/28 08:42:15;;;;;;;31.88;17.08;;;18.30;99.90;;;;;;5039738;28;20022;-76
2023/09/28 08:44:41;;;;;;;27.33;15.80;;;18.30;99.90;;;;;;5038821;28;20033;-77
2023/09/28 08:47:16;;;;;;;29.25;16.13;;;18.20;99.90;;;;;;5038610;28;20017;-77
2023/09/28 08:49:46;;;;;;;31.05;15.98;;;18.30;99.90;;;;;;5039221;28;20033;-77
2023/09/28 08:52:14;;;;;;;26.35;14.10;;;18.30;99.90;;;;;;5039080;28;20014;-77
2023/09/28 08:54:41;;;;;;;25.85;14.63;;;18.50;99.90;;;;;;5038402;28;20022;-76
2023/09/28 08:57:08;;;;;;;28.27;15.00;;;18.70;99.90;;;;;;5038981;28;20032;-77
2023/09/28 08:59:35;;;;;;;24.42;14.45;;;18.90;99.90;;;;;;5038535;28;20021;-77
2023/09/28 09:02:03;;;;;;;23.02;14.48;;;18.80;99.90;;;;;;5038187;28;20056;-77
2023/09/28 09:04:34;;;;;;;31.95;13.90;;;18.90;99.90;;;;;;5038465;28;20028;-77
2023/09/28 09:07:03;;;;;;;28.08;14.43;;;19.10;99.90;;;;;;5038978;28;20135;-77
2023/09/28 09:09:32;;;;;;;24.92;14.48;;;19.30;99.90;;;;;;5039138;28;20025;-77
2023/09/28 09:11:57;;;;;;;25.27;14.07;;;19.10;99.90;;;;;;5038450;28;20029;-77
2023/09/28 09:14:28;;;;;;;29.27;13.68;;;19.10;99.90;;;;;;5038719;28;20116;-77
2023/09/28 09:16:53;;;;;;;21.13;12.55;;;19.20;99.90;;;;;;5038707;28;20093;-77
2023/09/28 09:19:19;;;;;;;20.45;12.20;;;19.40;99.90;;;;;;5038059;28;20049;-77
2023/09/28 09:21:45;;;;;;;22.73;13.15;;;19.50;99.90;;;;;;5037483;28;20022;-77
2023/09/28 09:24:14;;;;;;;24.50;13.13;;;19.60;99.90;;;;;;5038070;28;20021;-77
2023/09/28 09:26:47;;;;;;;24.58;11.95;;;19.80;99.90;;;;;;5037764;28;20026;-77
2023/09/28 09:29:14;;;;;;;18.05;11.00;;;19.90;99.90;;;;;;5038105;28;20029;-77
2023/09/28 09:31:41;;;;;;;18.55;10.88;;;20.00;99.90;;;;;;5038247;28;20120;-78
2023/09/28 09:34:17;;;;;;;19.20;12.13;;;20.10;99.90;;;;;;5037913;28;20029;-77
2023/09/28 09:36:48;;;;;;;21.73;11.38;;;20.10;99.90;;;;;;5038171;28;20112;-77
2023/09/28 09:39:21;;;;;;;;;;;20.20;99.90;;;;;;5038666;28;20025;-77
2023/09/28 09:41:49;;;;;;;20.55;10.90;;;20.30;99.90;;;;;;5038047;28;19916;-77
2023/09/28 09:44:19;;;;;;;24.90;9.68;;;20.40;99.90;;;;;;5037682;28;20045;-77
2023/09/28 09:46:49;;;;;;;18.55;10.63;;;20.50;99.90;;;;;;5037678;28;20022;-77
2023/09/28 09:49:18;;;;;;;16.88;11.18;;;20.50;99.90;;;;;;5038007;28;20059;-77
2023/09/28 09:51:48;;;;;;;16.92;10.35;;;20.60;99.90;;;;;;5037185;28;20022;-77
2023/09/28 09:54:14;;;;;;;17.00;9.63;;;20.70;99.90;;;;;;5037690;28;20084;-77
2023/09/28 09:56:44;;;;;;;19.55;8.85;;;20.90;99.90;;;;;;5037199;28;20036;-77
2023/09/28 09:59:13;;;;;;;12.35;8.20;;;21.20;99.90;;;;;;5037431;28;20120;-78
2023/09/28 10:01:41;;;;;;;14.38;8.75;;;21.30;99.90;;;;;;5037750;28;20049;-77
2023/09/28 10:04:12;;;;;;;11.73;7.70;;;21.40;99.90;;;;;;5037657;28;20017;-77
2023/09/28 10:06:41;;;;;;;13.43;7.53;;;21.60;99.90;;;;;;5037860;28;20021;-77
2023/09/28 10:09:10;;;;;;;14.77;7.50;;;22.00;99.90;;;;;;5036957;28;20085;-77
2023/09/28 10:11:40;;;;;;;15.95;7.25;;;22.20;99.90;;;;;;5036720;28;20033;-77
2023/09/28 10:14:08;;;;;;;18.70;8.27;;;22.40;99.90;;;;;;5037264;28;20032;-77
2023/09/28 10:16:36;;;;;;;15.20;8.73;;;22.70;99.90;;;;;;5037998;28;20029;-77
2023/09/28 10:19:04;;;;;;;14.25;7.80;;;22.90;99.90;;;;;;5036725;28;20026;-77
2023/09/28 10:21:37;;;;;;;11.77;7.97;;;23.00;99.90;;;;;;5037333;28;20025;-77
2023/09/28 10:24:17;;;;;;;13.35;8.90;;;23.40;99.90;;;;;;5036775;28;20029;-77
2023/09/28 10:26:50;;;;;;;12.10;7.28;;;23.60;99.90;;;;;;5036779;28;20052;-77
2023/09/28 10:29:30;;;;;;;14.35;7.78;;;23.30;99.90;;;;;;5036509;28;20025;-77
2023/09/28 10:31:56;;;;;;;9.52;5.75;;;23.40;99.90;;;;;;5036552;28;20028;-77
2023/09/28 10:34:24;;;;;;;7.10;5.00;;;23.60;99.90;;;;;;5036675;28;20033;-77
2023/09/28 10:37:18;;;;;;;10.30;5.70;;;23.70;99.90;;;;;;5036370;28;20029;-77
2023/09/28 10:39:48;;;;;;;10.90;5.97;;;24.50;99.90;;;;;;5030828;28;20034;-77
2023/09/28 10:42:17;;;;;;;7.43;4.65;;;24.70;99.90;;;;;;5036627;28;20049;-77
2023/09/28 10:44:48;;;;;;;9.05;4.30;;;25.40;99.90;;;;;;5036412;28;20064;-77
2023/09/28 10:47:14;;;;;;;8.18;5.05;;;25.60;99.90;;;;;;5036522;28;20079;-77
2023/09/28 10:49:40;;;;;;;8.07;3.50;;;25.70;99.90;;;;;;5036328;28;20117;-77
2023/09/28 10:52:09;;;;;;;8.75;5.55;;;26.20;99.90;;;;;;5036364;28;20052;-77
2023/09/28 10:54:36;;;;;;;8.60;4.65;;;26.40;99.90;;;;;;5036504;28;20017;-77
2023/09/28 10:57:02;;;;;;;5.07;3.20;;;26.30;99.90;;;;;;5036195;28;20017;-77
2023/09/28 10:59:28;;;;;;;8.70;5.63;;;26.80;99.90;;;;;;5036470;28;20029;-77
2023/09/28 11:01:54;;;;;;;7.40;4.95;;;26.80;99.90;;;;;;5036339;28;20029;-77
2023/09/28 11:04:20;;;;;;;7.10;4.90;;;26.60;99.90;;;;;;5036989;28;20024;-78
2023/09/28 11:06:45;;;;;;;5.72;4.30;;;26.50;99.90;;;;;;5036657;28;20021;-78
2023/09/28 11:09:14;;;;;;;6.05;4.20;;;26.20;99.90;;;;;;5036120;28;20026;-77
2023/09/28 11:11:43;;;;;;;6.68;3.38;;;26.50;99.90;;;;;;5035808;28;20025;-77
2023/09/28 11:14:10;;;;;;;5.28;3.45;;;27.00;99.90;;;;;;5037027;28;20079;-77
2023/09/28 11:16:41;;;;;;;5.35;3.55;;;26.90;99.90;;;;;;5036159;28;20027;-78
2023/09/28 11:19:08;;;;;;;5.32;4.00;;;27.30;99.90;;;;;;5036040;28;20021;-77
2023/09/28 11:21:34;;;;;;;10.05;4.88;;;27.80;99.90;;;;;;5036016;28;20033;-77
2023/09/28 11:24:02;;;;;;;7.78;4.93;;;27.20;99.90;;;;;;5035986;28;20067;-77
2023/09/28 11:26:29;;;;;;;11.02;5.65;;;26.50;99.90;;;;;;5036420;28;20112;-77
2023/09/28 11:28:57;;;;;;;10.70;6.78;;;27.00;99.90;;;;;;5036075;28;20029;-77
2023/09/28 11:31:23;;;;;;;8.98;6.10;;;27.10;99.90;;;;;;5036042;28;20025;-77
2023/09/28 11:33:49;;;;;;;19.42;6.60;;;27.00;99.90;;;;;;5036125;28;20072;-77
2023/09/28 11:36:17;;;;;;;9.13;5.40;;;26.50;99.90;;;;;;5036640;28;20071;-77
2023/09/28 11:38:44;;;;;;;12.10;6.32;;;26.00;99.90;;;;;;5036574;28;20026;-77
2023/09/28 11:41:10;;;;;;;9.52;5.88;;;25.80;99.90;;;;;;5036025;28;20025;-77
2023/09/28 11:43:51;;;;;;;10.15;5.97;;;26.00;99.90;;;;;;5036002;28;20030;-77
2023/09/28 11:46:22;;;;;;;8.18;6.28;;;25.90;99.90;;;;;;5039803;28;20022;-77
2023/09/28 11:48:49;;;;;;;9.88;5.72;;;26.00;99.90;;;;;;5040282;28;20021;-77
2023/09/28 11:51:15;;;;;;;7.35;6.00;;;25.70;99.90;;;;;;5040354;28;20026;-77
2023/09/28 11:53:42;;;;;;;10.75;5.65;;;25.90;99.90;;;;;;5039356;28;20030;-77
2023/09/28 11:56:11;;;;;;;12.13;6.35;;;25.90;99.90;;;;;;5039734;28;20030;-77
2023/09/28 11:58:37;;;;;;;6.40;5.47;;;26.20;99.90;;;;;;5039781;28;20049;-77
2023/09/28 12:01:03;;;;;;;8.73;6.40;;;25.90;99.90;;;;;;5039268;28;20068;-76
2023/09/28 12:03:28;;;;;;;8.05;5.60;;;25.80;99.90;;;;;;5039622;28;20108;-77
2023/09/28 12:05:55;;;;;;;8.15;5.35;;;25.70;99.90;;;;;;5040212;28;20117;-78
2023/09/28 12:08:21;;;;;;;7.03;5.03;;;26.30;99.90;;;;;;5039873;28;20021;-77
2023/09/28 12:10:47;;;;;;;7.35;4.78;;;27.40;99.90;;;;;;5039185;28;20030;-77
2023/09/28 12:13:12;;;;;;;6.00;4.45;;;28.60;99.90;;;;;;5039318;28;20041;-77
2023/09/28 12:15:39;;;;;;;7.97;4.80;;;29.70;99.90;;;;;;5039223;28;20057;-77
2023/09/28 12:18:04;;;;;;;9.93;5.68;;;29.70;99.90;;;;;;5039861;28;20033;-77
2023/09/28 12:20:31;;;;;;;9.35;6.20;;;30.00;99.90;;;;;;5040196;28;20026;-77
2023/09/28 12:22:56;;;;;;;8.68;4.93;;;29.00;99.90;;;;;;5038920;28;20087;-77
2023/09/28 12:25:23;;;;;;;9.35;5.95;;;28.10;99.90;;;;;;5039151;28;20108;-77
2023/09/28 12:27:49;;;;;;;7.45;4.93;;;28.10;99.90;;;;;;5039654;28;20022;-77
2023/09/28 12:30:21;;;;;;;8.82;4.03;;;29.10;99.90;;;;;;5038743;28;20029;-77
2023/09/28 12:32:47;;;;;;;8.15;4.90;;;29.30;99.90;;;;;;5039632;28;20037;-77
2023/09/28 12:35:13;;;;;;;6.03;4.70;;;28.70;99.90;;;;;;5038867;28;20029;-76
2023/09/28 12:37:39;;;;;;;13.18;5.15;;;28.80;99.90;;;;;;5039157;28;20075;-77
2023/09/28 12:40:11;;;;;;;10.02;4.75;;;28.30;99.90;;;;;;5039269;28;20026;-77